createdAt,value
2022-09-21T00:04:07.476Z,7.60
2022-09-21T00:09:06.154Z,7.60
2022-09-21T00:11:35.240Z,7.50
2022-09-21T00:14:05.471Z,5.20
2022-09-21T00:24:00.587Z,7.00
2022-09-21T00:26:29.671Z,9.90
2022-09-21T00:29:00.405Z,7.70
2022-09-21T00:31:30.021Z,7.70
2022-09-21T00:34:00.157Z,7.90
2022-09-21T00:36:29.032Z,7.90
2022-09-21T00:39:00.930Z,8.00
2022-09-21T00:41:30.650Z,7.90
2022-09-21T00:44:25.309Z,7.90
2022-09-21T00:46:54.917Z,7.90
2022-09-21T00:51:53.241Z,7.90
2022-09-21T00:54:26.696Z,7.60
2022-09-21T00:56:56.401Z,7.60
2022-09-21T00:59:29.398Z,7.50
2022-09-21T01:01:59.066Z,7.50
2022-09-21T01:04:28.280Z,7.40
2022-09-21T01:06:57.746Z,7.50
2022-09-21T01:09:27.744Z,7.50
2022-09-21T01:12:08.334Z,7.50
2022-09-21T01:15:14.755Z,7.50
2022-09-21T01:17:50.902Z,7.50
2022-09-21T01:20:43.652Z,7.50
2022-09-21T01:23:50.029Z,7.50
2022-09-21T01:26:27.924Z,7.50
2022-09-21T01:29:17.909Z,7.50
2022-09-21T01:31:51.213Z,7.50
2022-09-21T01:34:28.892Z,7.40
2022-09-21T01:37:00.077Z,11.10
2022-09-21T01:41:58.557Z,7.30
2022-09-21T01:44:33.475Z,7.30
2022-09-21T01:47:03.891Z,7.30
2022-09-21T01:49:37.540Z,7.60
2022-09-21T01:52:13.059Z,7.10
2022-09-21T01:54:47.216Z,7.10
2022-09-21T01:57:20.289Z,7.10
2022-09-21T01:59:53.923Z,7.00
2022-09-21T02:02:25.871Z,7.00
2022-09-21T02:04:53.910Z,6.90
2022-09-21T02:07:22.193Z,7.00
2022-09-21T02:09:50.302Z,6.90
2022-09-21T02:12:19.325Z,6.90
2022-09-21T02:14:49.476Z,6.90
2022-09-21T02:17:32.395Z,6.90
2022-09-21T02:20:10.789Z,7.60
2022-09-21T02:22:49.401Z,6.80
2022-09-21T02:25:22.511Z,6.80
2022-09-21T02:27:56.922Z,6.80
2022-09-21T02:30:28.194Z,6.80
2022-09-21T02:33:02.314Z,6.70
2022-09-21T02:35:37.334Z,6.70
2022-09-21T02:38:12.209Z,6.70
2022-09-21T02:40:44.629Z,6.80
2022-09-21T02:43:21.790Z,6.70
2022-09-21T02:45:55.536Z,6.60
2022-09-21T02:48:29.475Z,6.60
2022-09-21T02:51:00.682Z,7.30
2022-09-21T02:53:34.413Z,6.60
2022-09-21T02:56:06.952Z,6.60
2022-09-21T02:58:38.703Z,6.60
2022-09-21T03:06:05.652Z,6.50
2022-09-21T03:11:02.838Z,6.40
2022-09-21T03:13:31.282Z,6.40
2022-09-21T03:16:04.454Z,6.40
2022-09-21T03:18:35.050Z,6.30
2022-09-21T03:21:03.426Z,6.30
2022-09-21T03:23:31.751Z,6.30
2022-09-21T03:28:28.507Z,6.30
2022-09-21T03:30:57.089Z,6.20
2022-09-21T03:33:26.437Z,6.20
2022-09-21T03:40:53.631Z,6.10
2022-09-21T03:43:21.825Z,6.10
2022-09-21T03:45:49.834Z,6.10
2022-09-21T03:48:17.709Z,6.10
2022-09-21T03:50:45.807Z,6.00
2022-09-21T03:55:44.424Z,6.00
2022-09-21T04:00:40.587Z,6.00
2022-09-21T04:03:08.612Z,6.20
2022-09-21T04:05:36.600Z,6.00
2022-09-21T04:13:04.373Z,6.00
2022-09-21T04:15:32.652Z,6.00
2022-09-21T04:18:00.777Z,5.90
2022-09-21T04:20:29.369Z,5.90
2022-09-21T04:23:10.730Z,8.10
2022-09-21T04:31:30.998Z,5.90
2022-09-21T04:36:33.240Z,5.90
2022-09-21T04:39:04.482Z,5.90
2022-09-21T04:46:30.889Z,5.80
2022-09-21T05:04:03.235Z,5.80
2022-09-21T05:06:32.045Z,5.80
2022-09-21T05:09:17.700Z,6.00
2022-09-21T05:14:16.565Z,5.80
2022-09-21T05:16:44.728Z,5.70
2022-09-21T05:21:50.360Z,5.70
2022-09-21T05:31:58.084Z,5.90
2022-09-21T05:34:40.419Z,5.90
2022-09-21T05:37:15.266Z,6.00
2022-09-21T05:39:44.149Z,5.90
2022-09-21T05:44:43.359Z,6.10
2022-09-21T05:47:24.278Z,6.20
2022-09-21T05:50:01.095Z,6.20
2022-09-21T05:52:35.904Z,6.30
2022-09-21T05:55:14.280Z,6.40
2022-09-21T05:57:49.103Z,6.40
2022-09-21T06:00:20.553Z,6.60
2022-09-21T06:03:17.795Z,6.60
2022-09-21T06:05:46.476Z,6.50
2022-09-21T06:13:13.285Z,6.90
2022-09-21T06:15:42.145Z,6.90
2022-09-21T06:23:15.580Z,7.10
2022-09-21T06:25:43.503Z,7.10
2022-09-21T06:28:14.332Z,7.10
2022-09-21T06:30:45.060Z,7.10
2022-09-21T06:33:13.278Z,7.20
2022-09-21T06:35:41.606Z,7.20
2022-09-21T06:38:10.285Z,7.30
2022-09-21T06:40:38.541Z,7.20
2022-09-21T06:43:07.000Z,7.30
2022-09-21T06:48:05.568Z,7.30
2022-09-21T06:50:35.054Z,7.30
2022-09-21T06:53:17.714Z,7.50
2022-09-21T06:58:13.840Z,7.60
2022-09-21T07:00:43.452Z,7.70
2022-09-21T07:05:41.110Z,7.80
2022-09-21T07:10:05.007Z,7.80
2022-09-21T07:10:59.950Z,7.90
2022-09-21T07:13:28.679Z,7.90
2022-09-21T07:15:58.079Z,8.10
2022-09-21T07:18:26.748Z,8.00
2022-09-21T07:20:54.887Z,11.00
2022-09-21T07:25:52.795Z,8.30
2022-09-21T07:35:52.894Z,8.50
2022-09-21T07:38:21.482Z,10.40
2022-09-21T07:43:18.255Z,8.80
2022-09-21T07:45:55.947Z,8.90
2022-09-21T07:50:54.944Z,9.00
2022-09-21T07:55:51.644Z,9.10
2022-09-21T07:58:36.992Z,12.20
2022-09-21T08:01:06.953Z,9.30
2022-09-21T08:03:37.204Z,9.20
2022-09-21T08:06:05.482Z,9.30
2022-09-21T08:11:05.053Z,9.40
2022-09-21T08:21:02.044Z,9.70
2022-09-21T08:23:30.975Z,9.70
2022-09-21T08:26:02.797Z,9.70
2022-09-21T08:28:31.781Z,9.90
2022-09-21T08:31:10.854Z,9.80
2022-09-21T08:36:10.540Z,9.90
2022-09-21T08:38:40.047Z,10.00
2022-09-21T08:41:17.886Z,10.00
2022-09-21T08:43:49.215Z,10.20
2022-09-21T08:46:19.845Z,10.20
2022-09-21T08:48:52.095Z,10.30
2022-09-21T08:51:25.605Z,13.10
2022-09-21T08:53:57.743Z,10.40
2022-09-21T08:56:47.098Z,10.40
2022-09-21T08:59:16.794Z,10.40
2022-09-21T09:01:58.793Z,10.50
2022-09-21T09:04:36.586Z,10.60
2022-09-21T09:07:18.716Z,10.80
2022-09-21T09:10:01.773Z,10.90
2022-09-21T09:12:46.990Z,11.00
2022-09-21T09:15:25.730Z,11.00
2022-09-21T09:18:01.448Z,11.10
2022-09-21T09:20:33.844Z,13.80
2022-09-21T09:23:09.102Z,11.20
2022-09-21T09:25:39.843Z,11.10
2022-09-21T09:28:21.681Z,11.30
2022-09-21T09:30:57.637Z,11.40
2022-09-21T09:33:29.635Z,11.50
2022-09-21T09:36:03.414Z,11.70
2022-09-21T09:38:38.662Z,11.70
2022-09-21T09:41:31.884Z,11.80
2022-09-21T09:44:13.459Z,12.00
2022-09-21T09:46:57.299Z,12.10
2022-09-21T09:49:34.556Z,13.90
2022-09-21T09:52:03.307Z,12.00
2022-09-21T09:54:36.322Z,12.00
2022-09-21T09:57:06.061Z,12.00
2022-09-21T09:59:38.747Z,11.90
2022-09-21T10:02:08.898Z,11.90
2022-09-21T10:07:05.729Z,12.00
2022-09-21T10:12:18.833Z,12.30
2022-09-21T10:14:51.961Z,12.70
2022-09-21T10:17:21.142Z,12.70
2022-09-21T10:22:21.910Z,12.90
2022-09-21T10:24:54.271Z,12.90
2022-09-21T10:27:26.666Z,12.60
2022-09-21T10:29:54.945Z,12.60
2022-09-21T10:32:26.548Z,12.70
2022-09-21T10:35:18.271Z,12.70
2022-09-21T10:37:50.989Z,12.80
2022-09-21T10:40:31.892Z,12.80
2022-09-21T10:43:01.530Z,12.80
2022-09-21T10:45:37.383Z,12.70
2022-09-21T10:48:11.271Z,10.80
2022-09-21T10:50:41.485Z,13.00
2022-09-21T10:53:18.904Z,12.90
2022-09-21T10:56:14.573Z,13.10
2022-09-21T10:59:22.477Z,13.00
2022-09-21T11:01:51.908Z,12.80
2022-09-21T11:04:35.801Z,12.80
2022-09-21T11:07:15.371Z,12.80
2022-09-21T11:09:49.890Z,15.80
2022-09-21T11:12:31.513Z,13.20
2022-09-21T11:18:20.063Z,13.50
2022-09-21T11:20:53.121Z,13.70
2022-09-21T11:23:38.504Z,13.50
2022-09-21T11:26:13.777Z,13.50
2022-09-21T11:28:49.396Z,13.90
2022-09-21T11:31:38.783Z,13.90
2022-09-21T11:34:26.246Z,13.90
2022-09-21T11:37:10.084Z,13.70
2022-09-21T11:39:51.257Z,16.40
2022-09-21T11:42:34.158Z,13.70
2022-09-21T11:45:14.378Z,14.10
2022-09-21T11:47:58.961Z,14.50
2022-09-21T11:50:55.265Z,14.50
2022-09-21T11:53:37.396Z,14.30
2022-09-21T11:56:26.977Z,14.50
2022-09-21T11:59:07.007Z,14.50
2022-09-21T12:01:48.458Z,15.10
2022-09-21T12:04:42.303Z,15.10
2022-09-21T12:07:30.346Z,16.10
2022-09-21T12:10:15.237Z,15.80
2022-09-21T12:12:49.596Z,16.50
2022-09-21T12:15:25.701Z,16.10
2022-09-21T12:18:02.572Z,16.10
2022-09-21T12:20:43.552Z,16.10
2022-09-21T12:23:18.429Z,15.90
2022-09-21T12:25:58.497Z,16.00
2022-09-21T12:29:01.268Z,15.90
2022-09-21T12:34:21.986Z,15.30
2022-09-21T12:37:08.524Z,16.20
2022-09-21T12:39:44.153Z,15.70
2022-09-21T12:42:24.603Z,16.10
2022-09-21T12:44:56.882Z,16.50
2022-09-21T12:47:34.170Z,16.50
2022-09-21T12:50:07.255Z,16.10
2022-09-21T12:52:38.437Z,16.10
2022-09-21T12:55:21.420Z,15.00
2022-09-21T12:58:14.564Z,15.10
2022-09-21T13:00:53.172Z,15.00
2022-09-21T13:03:33.267Z,15.10
2022-09-21T13:06:56.814Z,15.10
2022-09-21T13:15:59.674Z,16.00
2022-09-21T13:21:32.493Z,16.20
2022-09-21T13:25:03.183Z,16.20
2022-09-21T13:32:22.755Z,16.70
2022-09-21T13:34:52.494Z,16.80
2022-09-21T13:37:31.842Z,17.00
2022-09-21T13:52:18.018Z,16.40
2022-09-21T13:55:05.943Z,16.50
2022-09-21T13:58:18.974Z,15.50
2022-09-21T14:00:59.377Z,15.80
2022-09-21T14:03:36.786Z,15.80
2022-09-21T14:06:10.313Z,15.90
2022-09-21T14:08:43.211Z,16.90
2022-09-21T14:11:23.963Z,16.70
2022-09-21T14:14:06.388Z,18.20
2022-09-21T14:17:05.772Z,19.00
2022-09-21T14:20:30.306Z,18.90
2022-09-21T14:23:30.027Z,19.70
2022-09-21T14:28:42.063Z,20.00
2022-09-21T14:31:19.586Z,19.60
2022-09-21T14:33:54.366Z,19.50
2022-09-21T14:36:31.626Z,20.20
2022-09-21T14:39:06.842Z,20.20
2022-09-21T14:41:47.902Z,20.50
2022-09-21T14:44:22.819Z,20.80
2022-09-21T14:47:12.105Z,20.80
2022-09-21T14:50:06.459Z,20.90
2022-09-21T14:52:50.302Z,20.70
2022-09-21T14:55:27.666Z,20.30
2022-09-21T14:58:21.455Z,20.30
2022-09-21T15:01:22.112Z,21.10
2022-09-21T15:04:01.863Z,21.40
2022-09-21T15:06:58.374Z,21.20
2022-09-21T15:10:17.780Z,21.40
2022-09-21T15:12:54.375Z,21.20
2022-09-21T15:15:35.845Z,21.20
2022-09-21T15:18:21.511Z,20.80
2022-09-21T15:21:01.982Z,20.80
2022-09-21T15:26:09.607Z,20.80
2022-09-21T15:33:54.380Z,20.40
2022-09-21T15:36:24.990Z,20.50
2022-09-21T15:38:54.144Z,20.40
2022-09-21T15:41:41.264Z,20.20
2022-09-21T15:44:16.308Z,20.20
2022-09-21T15:46:47.323Z,20.60
2022-09-21T15:49:22.140Z,20.60
2022-09-21T15:51:56.722Z,20.50
2022-09-21T15:54:32.916Z,19.50
2022-09-21T15:57:08.032Z,19.50
2022-09-21T16:02:13.478Z,19.40
2022-09-21T16:04:49.573Z,19.30
2022-09-21T16:07:28.282Z,19.30
2022-09-21T16:09:56.817Z,19.20
2022-09-21T16:12:40.954Z,19.10
2022-09-21T16:15:24.049Z,18.10
2022-09-21T16:18:02.999Z,18.00
2022-09-21T16:20:45.791Z,17.80
2022-09-21T16:23:17.566Z,17.70
2022-09-21T16:28:44.962Z,16.60
2022-09-21T16:31:38.946Z,16.00
2022-09-21T16:34:22.905Z,15.50
2022-09-21T16:37:26.442Z,15.20
2022-09-21T16:42:46.975Z,14.80
2022-09-21T16:45:22.975Z,14.50
2022-09-21T16:50:25.966Z,14.30
2022-09-21T17:00:49.054Z,13.70
2022-09-21T17:08:50.808Z,13.30
2022-09-21T17:11:25.964Z,13.20
2022-09-21T17:19:20.322Z,13.00
2022-09-21T17:21:59.819Z,13.00
2022-09-21T17:27:52.965Z,12.80
2022-09-21T17:32:55.891Z,12.50
2022-09-21T17:35:33.523Z,12.40
2022-09-21T17:40:43.744Z,12.30
2022-09-21T17:43:37.337Z,12.30
2022-09-21T17:46:13.482Z,12.20
2022-09-21T17:48:42.782Z,12.20
2022-09-21T17:54:01.231Z,12.00
2022-09-21T17:56:39.547Z,11.90
2022-09-21T17:59:25.496Z,11.90
2022-09-21T18:01:54.231Z,11.90
2022-09-21T18:04:22.947Z,11.90
2022-09-21T18:06:51.288Z,12.20
2022-09-21T18:09:19.769Z,11.70
2022-09-21T18:12:14.865Z,11.60
2022-09-21T18:14:58.253Z,11.60
2022-09-21T18:17:47.454Z,11.50
2022-09-21T18:20:28.572Z,11.40
2022-09-21T18:23:05.840Z,11.40
2022-09-21T18:25:47.528Z,11.40
2022-09-21T18:28:23.705Z,11.30
2022-09-21T18:31:24.651Z,11.30
2022-09-21T18:37:30.413Z,11.20
2022-09-21T18:40:09.006Z,11.10
2022-09-21T18:42:51.425Z,12.10
2022-09-21T18:45:25.907Z,10.90
2022-09-21T18:48:12.503Z,10.90
2022-09-21T18:50:51.799Z,10.90
2022-09-21T18:53:26.419Z,10.90
2022-09-21T18:55:55.768Z,10.90
2022-09-21T18:58:24.508Z,10.80
2022-09-21T19:00:56.467Z,10.80
2022-09-21T19:03:26.884Z,10.70
2022-09-21T19:06:34.173Z,10.70
2022-09-21T19:09:11.602Z,10.70
2022-09-21T19:11:46.595Z,10.70
2022-09-21T19:14:23.590Z,10.70
2022-09-21T19:17:06.460Z,10.50
2022-09-21T19:19:46.183Z,10.50
2022-09-21T19:22:17.353Z,10.50
2022-09-21T19:24:56.099Z,9.90
2022-09-21T19:27:32.135Z,10.30
2022-09-21T19:30:06.168Z,10.30
2022-09-21T19:32:42.497Z,10.30
2022-09-21T19:35:21.588Z,10.20
2022-09-21T19:37:51.967Z,10.20
2022-09-21T19:40:22.480Z,10.20
2022-09-21T19:43:08.074Z,10.20
2022-09-21T19:45:48.677Z,10.10
2022-09-21T19:48:17.762Z,12.30
2022-09-21T19:50:54.599Z,9.90
2022-09-21T19:53:40.705Z,9.90
2022-09-21T19:56:29.799Z,9.90
2022-09-21T19:59:15.856Z,12.20
2022-09-21T20:01:52.611Z,9.70
2022-09-21T20:04:28.020Z,9.70
2022-09-21T20:07:04.989Z,9.70
2022-09-21T20:09:38.151Z,9.70
2022-09-21T20:12:15.197Z,9.60
2022-09-21T20:14:48.278Z,9.60
2022-09-21T20:17:22.070Z,9.60
2022-09-21T20:19:55.813Z,9.60
2022-09-21T20:22:33.622Z,9.60
2022-09-21T20:25:06.950Z,9.60
2022-09-21T20:27:38.964Z,9.50
2022-09-21T20:30:10.068Z,9.50
2022-09-21T20:32:42.385Z,9.40
2022-09-21T20:35:16.008Z,9.40
2022-09-21T20:37:45.866Z,10.20
2022-09-21T20:40:14.857Z,9.30
2022-09-21T20:42:43.132Z,9.30
2022-09-21T20:45:12.810Z,9.20
2022-09-21T20:47:40.895Z,9.20
2022-09-21T20:50:11.592Z,9.10
2022-09-21T20:52:41.451Z,9.10
2022-09-21T20:55:13.684Z,8.90
2022-09-21T20:57:41.794Z,8.90
2022-09-21T21:00:12.419Z,8.80
2022-09-21T21:05:11.187Z,8.80
2022-09-21T21:07:41.069Z,8.80
2022-09-21T21:10:13.307Z,8.80
2022-09-21T21:15:11.331Z,8.70
2022-09-21T21:17:39.563Z,8.70
2022-09-21T21:20:08.689Z,8.60
2022-09-21T21:25:06.352Z,8.40
2022-09-21T21:32:32.984Z,8.40
2022-09-21T21:39:58.490Z,8.50
2022-09-21T21:42:28.777Z,8.40
2022-09-21T21:44:58.853Z,8.40
2022-09-21T21:47:39.262Z,8.40
2022-09-21T21:55:05.103Z,8.40
2022-09-21T22:02:32.359Z,8.30
2022-09-21T22:07:28.761Z,8.30
2022-09-21T22:22:22.177Z,8.00
2022-09-21T22:24:50.117Z,8.00
2022-09-21T22:27:18.024Z,9.10
2022-09-21T22:32:14.255Z,7.90
2022-09-21T22:37:11.811Z,7.70
2022-09-21T22:42:08.302Z,7.70
2022-09-21T22:44:36.339Z,7.60
2022-09-21T22:47:04.666Z,7.60
2022-09-21T22:54:30.994Z,7.70
2022-09-21T22:56:59.012Z,7.60
2022-09-21T22:59:27.042Z,7.60
2022-09-21T23:01:56.524Z,7.60
2022-09-21T23:04:24.698Z,7.50
2022-09-21T23:06:52.636Z,7.50
2022-09-21T23:09:22.689Z,7.50
2022-09-21T23:11:55.143Z,7.50
2022-09-21T23:14:24.176Z,7.40
2022-09-21T23:16:53.337Z,7.40
2022-09-21T23:19:21.413Z,10.10
2022-09-21T23:21:50.975Z,7.30
2022-09-21T23:24:21.919Z,7.30
2022-09-21T23:26:51.433Z,7.20
2022-09-21T23:29:19.503Z,7.20
2022-09-21T23:31:47.570Z,7.20
2022-09-21T23:34:16.417Z,7.30
2022-09-21T23:36:46.433Z,7.30
2022-09-21T23:39:16.058Z,7.20
2022-09-21T23:41:45.988Z,7.10
2022-09-21T23:44:13.925Z,7.10
2022-09-21T23:46:42.714Z,7.10
2022-09-21T23:49:11.154Z,7.10
2022-09-21T23:51:39.688Z,7.20
2022-09-21T23:56:36.212Z,7.10
